createdAt,value
2022-10-14T00:01:06.463Z,5.97
2022-10-14T00:03:34.887Z,4.73
2022-10-14T00:06:13.262Z,5.50
2022-10-14T00:08:40.956Z,5.50
2022-10-14T00:11:10.945Z,6.30
2022-10-14T00:13:38.610Z,5.47
2022-10-14T00:16:06.950Z,4.97
2022-10-14T00:18:34.103Z,5.20
2022-10-14T00:21:02.539Z,10.83
2022-10-14T00:23:29.674Z,5.07
2022-10-14T00:25:56.865Z,5.57
2022-10-14T00:28:24.289Z,8.43
2022-10-14T00:31:00.686Z,4.97
2022-10-14T00:33:28.486Z,5.03
2022-10-14T00:36:01.521Z,4.10
2022-10-14T00:38:29.227Z,4.10
2022-10-14T00:40:56.866Z,4.50
2022-10-14T00:43:26.357Z,6.33
2022-10-14T00:45:53.593Z,6.30
2022-10-14T00:48:24.160Z,5.63
2022-10-14T00:50:54.519Z,5.27
2022-10-14T00:53:22.051Z,4.80
2022-10-14T00:55:49.477Z,5.07
2022-10-14T00:58:17.215Z,5.40
2022-10-14T01:00:44.415Z,5.77
2022-10-14T01:03:19.916Z,5.27
2022-10-14T01:06:01.156Z,5.10
2022-10-14T01:08:34.034Z,4.63
2022-10-14T01:11:11.510Z,4.23
2022-10-14T01:13:50.928Z,4.27
2022-10-14T01:17:12.407Z,4.90
2022-10-14T01:20:00.629Z,4.97
2022-10-14T01:22:36.518Z,5.17
2022-10-14T01:25:32.313Z,4.90
2022-10-14T01:28:24.505Z,4.73
2022-10-14T01:31:00.002Z,4.70
2022-10-14T01:33:35.495Z,4.43
2022-10-14T01:36:29.143Z,5.27
2022-10-14T01:39:15.062Z,6.17
2022-10-14T01:41:47.632Z,7.43
2022-10-14T01:44:18.775Z,7.30
2022-10-14T01:46:51.981Z,8.13
2022-10-14T01:49:47.588Z,8.43
2022-10-14T01:52:23.421Z,7.20
2022-10-14T01:54:54.061Z,7.70
2022-10-14T01:57:26.140Z,6.87
2022-10-14T01:59:55.689Z,7.13
2022-10-14T02:02:24.759Z,7.67
2022-10-14T02:04:52.540Z,7.90
2022-10-14T02:07:36.926Z,7.53
2022-10-14T02:10:21.618Z,7.47
2022-10-14T02:13:21.813Z,8.70
2022-10-14T02:15:48.968Z,7.67
2022-10-14T02:18:54.937Z,6.50
2022-10-14T02:21:34.081Z,7.70
2022-10-14T02:24:34.631Z,7.20
2022-10-14T02:27:05.537Z,7.70
2022-10-14T02:29:34.374Z,6.90
2022-10-14T02:32:05.118Z,6.13
2022-10-14T02:34:34.047Z,7.50
2022-10-14T02:37:02.561Z,6.83
2022-10-14T02:39:33.225Z,7.27
2022-10-14T02:42:00.417Z,7.23
2022-10-14T02:44:27.612Z,6.63
2022-10-14T02:46:57.996Z,6.07
2022-10-14T02:49:25.222Z,6.73
2022-10-14T02:51:52.382Z,6.93
2022-10-14T02:54:19.584Z,9.17
2022-10-14T02:56:46.851Z,8.73
2022-10-14T02:59:13.997Z,7.63
2022-10-14T03:01:41.206Z,7.80
2022-10-14T03:04:08.385Z,9.43
2022-10-14T03:06:35.616Z,9.77
2022-10-14T03:09:03.900Z,9.23
2022-10-14T03:11:31.043Z,9.20
2022-10-14T03:13:58.274Z,11.20
2022-10-14T03:16:25.421Z,10.03
2022-10-14T03:18:52.571Z,8.73
2022-10-14T03:21:19.892Z,10.10
2022-10-14T03:23:47.106Z,8.83
2022-10-14T03:26:14.356Z,8.60
2022-10-14T03:28:41.490Z,7.77
2022-10-14T03:31:08.697Z,8.33
2022-10-14T03:33:35.853Z,7.03
2022-10-14T03:36:03.291Z,8.07
2022-10-14T03:38:30.566Z,8.73
2022-10-14T03:40:58.023Z,8.63
2022-10-14T03:43:25.136Z,8.60
2022-10-14T03:45:52.305Z,9.33
2022-10-14T03:48:19.493Z,9.10
2022-10-14T03:50:47.864Z,9.90
2022-10-14T03:53:15.195Z,19.70
2022-10-14T03:55:42.529Z,9.90
2022-10-14T03:58:11.761Z,10.00
2022-10-14T04:00:38.916Z,10.63
2022-10-14T04:03:06.115Z,8.60
2022-10-14T04:05:35.014Z,9.73
2022-10-14T04:08:02.205Z,8.47
2022-10-14T04:10:29.556Z,8.20
2022-10-14T04:12:57.596Z,8.77
2022-10-14T04:15:25.084Z,7.97
2022-10-14T04:17:52.463Z,10.93
2022-10-14T04:20:20.078Z,9.07
2022-10-14T04:22:47.407Z,9.60
2022-10-14T04:25:14.795Z,10.30
2022-10-14T04:27:42.038Z,11.03
2022-10-14T04:30:10.804Z,12.60
2022-10-14T04:32:37.912Z,11.30
2022-10-14T04:35:06.447Z,12.43
2022-10-14T04:37:33.710Z,12.00
2022-10-14T04:40:01.609Z,11.67
2022-10-14T04:42:28.884Z,11.63
2022-10-14T04:44:56.026Z,11.00
2022-10-14T04:47:23.304Z,13.00
2022-10-14T04:49:50.502Z,16.70
2022-10-14T04:52:17.643Z,12.33
2022-10-14T04:54:44.766Z,11.67
2022-10-14T04:57:12.575Z,12.10
2022-10-14T04:59:40.336Z,14.10
2022-10-14T05:02:07.455Z,13.80
2022-10-14T05:04:34.664Z,12.10
2022-10-14T05:07:01.752Z,13.07
2022-10-14T05:09:28.961Z,14.27
2022-10-14T05:11:56.187Z,13.17
2022-10-14T05:14:23.608Z,16.77
2022-10-14T05:16:50.908Z,12.50
2022-10-14T05:19:18.174Z,12.23
2022-10-14T05:21:45.290Z,10.30
2022-10-14T05:24:12.525Z,9.77
2022-10-14T05:26:39.634Z,11.23
2022-10-14T05:29:07.204Z,11.03
2022-10-14T05:31:34.329Z,11.47
2022-10-14T05:34:01.473Z,12.77
2022-10-14T05:36:28.646Z,10.23
2022-10-14T05:38:58.881Z,10.43
2022-10-14T05:41:26.624Z,11.53
2022-10-14T05:43:53.894Z,9.70
2022-10-14T05:46:21.467Z,10.60
2022-10-14T05:48:48.646Z,9.37
2022-10-14T05:51:15.881Z,10.57
2022-10-14T05:53:43.734Z,10.50
2022-10-14T05:56:11.074Z,9.93
2022-10-14T05:58:38.371Z,9.20
2022-10-14T06:01:08.573Z,9.17
2022-10-14T06:03:36.064Z,8.97
2022-10-14T06:06:03.386Z,8.80
2022-10-14T06:08:30.577Z,8.57
2022-10-14T06:10:57.899Z,9.63
2022-10-14T06:13:25.079Z,9.37
2022-10-14T06:15:52.253Z,8.63
2022-10-14T06:18:19.409Z,8.23
2022-10-14T06:20:53.337Z,9.63
2022-10-14T06:23:21.186Z,8.17
2022-10-14T06:25:48.440Z,11.50
2022-10-14T06:28:15.815Z,8.17
2022-10-14T06:30:42.945Z,8.50
2022-10-14T06:33:10.119Z,9.07
2022-10-14T06:35:37.375Z,7.90
2022-10-14T06:38:04.587Z,7.90
2022-10-14T06:40:31.795Z,9.23
2022-10-14T06:42:59.809Z,7.60
2022-10-14T06:45:27.069Z,7.30
2022-10-14T06:47:54.222Z,8.40
2022-10-14T06:50:21.489Z,7.40
2022-10-14T06:52:48.639Z,8.07
2022-10-14T06:55:16.737Z,7.37
2022-10-14T06:57:44.205Z,9.20
2022-10-14T07:00:11.822Z,8.23
2022-10-14T07:02:39.208Z,6.90
2022-10-14T07:05:07.011Z,7.50
2022-10-14T07:07:34.758Z,6.20
2022-10-14T07:10:02.125Z,6.70
2022-10-14T07:12:29.409Z,7.87
2022-10-14T07:14:57.202Z,6.60
2022-10-14T07:17:24.800Z,6.97
2022-10-14T07:19:52.302Z,6.50
2022-10-14T07:22:19.779Z,5.90
2022-10-14T07:24:47.418Z,6.70
2022-10-14T07:27:16.225Z,5.93
2022-10-14T07:29:43.691Z,6.43
2022-10-14T07:32:10.874Z,6.47
2022-10-14T07:34:38.094Z,6.70
2022-10-14T07:37:05.338Z,6.23
2022-10-14T07:39:32.609Z,8.45
2022-10-14T07:42:00.003Z,6.30
2022-10-14T07:44:27.545Z,6.87
2022-10-14T07:46:55.234Z,6.68
2022-10-14T07:49:23.215Z,10.15
2022-10-14T07:51:50.944Z,9.68
2022-10-14T07:54:25.912Z,6.85
2022-10-14T07:56:53.313Z,6.88
2022-10-14T07:59:22.075Z,7.38
2022-10-14T08:01:50.475Z,6.45
2022-10-14T08:04:18.380Z,6.90
2022-10-14T08:06:48.853Z,6.75
2022-10-14T08:09:17.143Z,6.40
2022-10-14T08:11:45.065Z,6.68
2022-10-14T08:14:12.618Z,6.07
2022-10-14T08:16:40.441Z,5.93
2022-10-14T08:19:14.694Z,5.45
2022-10-14T08:21:43.681Z,5.25
2022-10-14T08:24:11.356Z,5.25
2022-10-14T08:26:40.709Z,5.32
2022-10-14T08:29:11.424Z,5.10
2022-10-14T08:31:38.558Z,5.55
2022-10-14T08:34:06.878Z,4.97
2022-10-14T08:36:34.079Z,4.85
2022-10-14T08:39:01.319Z,4.72
2022-10-14T08:41:50.589Z,4.70
2022-10-14T08:44:23.293Z,5.10
2022-10-14T08:46:57.667Z,5.05
2022-10-14T08:49:28.140Z,4.97
2022-10-14T08:52:12.435Z,4.60
2022-10-14T08:54:51.566Z,4.65
2022-10-14T08:57:26.402Z,5.53
2022-10-14T08:59:54.174Z,5.35
2022-10-14T09:02:46.326Z,5.10
2022-10-14T09:05:19.562Z,5.90
2022-10-14T09:10:33.273Z,5.70
2022-10-14T09:13:23.374Z,6.20
2022-10-14T09:16:00.856Z,5.93
2022-10-14T09:18:55.796Z,6.22
2022-10-14T09:21:51.754Z,6.55
2022-10-14T09:24:29.252Z,6.30
2022-10-14T09:27:02.983Z,6.30
2022-10-14T09:29:52.808Z,6.40
2022-10-14T09:32:20.175Z,5.90
2022-10-14T09:34:52.025Z,6.53
2022-10-14T09:37:32.929Z,6.10
2022-10-14T09:40:14.073Z,6.57
2022-10-14T09:42:52.949Z,7.10
2022-10-14T09:45:22.947Z,6.70
2022-10-14T09:47:53.378Z,6.15
2022-10-14T09:50:33.065Z,6.47
2022-10-14T09:53:03.742Z,6.13
2022-10-14T09:55:31.939Z,6.35
2022-10-14T09:58:04.607Z,5.85
2022-10-14T10:00:34.284Z,6.22
2022-10-14T10:03:01.667Z,6.03
2022-10-14T10:05:34.879Z,5.93
2022-10-14T10:08:14.211Z,6.18
2022-10-14T10:10:41.926Z,5.65
2022-10-14T10:13:34.984Z,5.97
2022-10-14T10:16:05.585Z,6.30
2022-10-14T10:18:32.761Z,6.30
2022-10-14T10:21:15.506Z,5.65
2022-10-14T10:23:55.334Z,6.13
2022-10-14T10:26:27.114Z,5.80
2022-10-14T10:28:57.613Z,6.30
2022-10-14T10:31:35.723Z,5.95
2022-10-14T10:34:11.947Z,6.20
2022-10-14T10:36:52.359Z,5.57
2022-10-14T10:40:03.116Z,5.30
2022-10-14T10:43:16.568Z,5.95
2022-10-14T10:46:22.055Z,5.40
2022-10-14T10:49:10.489Z,5.15
2022-10-14T10:51:40.731Z,5.40
2022-10-14T10:54:28.160Z,4.68
2022-10-14T10:57:00.129Z,4.75
2022-10-14T10:59:38.724Z,4.97
2022-10-14T11:02:38.268Z,4.97
2022-10-14T11:05:05.461Z,5.35
2022-10-14T11:08:14.547Z,5.10
2022-10-14T11:11:41.977Z,5.22
2022-10-14T11:14:29.400Z,5.20
2022-10-14T11:17:06.636Z,5.38
2022-10-14T11:19:55.399Z,4.95
2022-10-14T11:22:38.767Z,5.43
2022-10-14T11:25:22.722Z,5.00
2022-10-14T11:28:01.718Z,5.10
2022-10-14T11:30:56.918Z,5.15
2022-10-14T11:34:03.152Z,5.38
2022-10-14T11:36:58.777Z,4.50
2022-10-14T11:39:40.010Z,4.93
2022-10-14T11:42:18.814Z,4.30
2022-10-14T11:44:47.623Z,4.70
2022-10-14T11:47:24.942Z,4.68
2022-10-14T11:50:11.212Z,4.13
2022-10-14T11:52:56.533Z,4.10
2022-10-14T11:55:25.098Z,4.35
2022-10-14T11:58:05.329Z,4.75
2022-10-14T12:00:37.100Z,5.10
2022-10-14T12:03:16.810Z,4.20
2022-10-14T12:06:02.579Z,4.55
2022-10-14T12:08:46.356Z,4.43
2022-10-14T12:11:51.606Z,4.55
2022-10-14T12:14:23.806Z,4.50
2022-10-14T12:16:52.694Z,4.88
2022-10-14T12:19:25.916Z,4.25
2022-10-14T12:22:16.899Z,4.22
2022-10-14T12:24:54.681Z,4.00
2022-10-14T12:27:24.618Z,4.68
2022-10-14T12:29:53.128Z,4.05
2022-10-14T12:32:25.100Z,4.30
2022-10-14T12:35:01.430Z,4.53
2022-10-14T12:37:35.687Z,4.22
2022-10-14T12:40:06.947Z,4.15
2022-10-14T12:42:54.888Z,4.57
2022-10-14T12:45:24.837Z,5.05
2022-10-14T12:48:22.125Z,4.55
2022-10-14T12:50:53.066Z,4.40
2022-10-14T12:53:30.766Z,4.45
2022-10-14T12:56:00.880Z,4.30
2022-10-14T12:58:38.706Z,4.43
2022-10-14T13:01:18.807Z,5.03
2022-10-14T13:06:42.632Z,5.35
2022-10-14T13:09:12.875Z,4.07
2022-10-14T13:12:01.160Z,4.40
2022-10-14T13:14:35.572Z,4.18
2022-10-14T13:17:03.646Z,5.00
2022-10-14T13:19:33.929Z,5.00
2022-10-14T13:22:02.862Z,4.72
2022-10-14T13:24:39.261Z,4.47
2022-10-14T13:27:30.588Z,4.30
2022-10-14T13:30:23.169Z,4.45
2022-10-14T13:33:21.169Z,4.40
2022-10-14T13:36:07.655Z,4.22
2022-10-14T13:38:35.753Z,4.47
2022-10-14T13:41:05.158Z,4.32
2022-10-14T13:43:35.237Z,4.40
2022-10-14T13:46:05.331Z,4.45
2022-10-14T13:48:35.872Z,4.80
2022-10-14T13:51:35.142Z,4.65
2022-10-14T13:54:18.446Z,4.60
2022-10-14T13:57:42.653Z,4.15
2022-10-14T14:00:39.536Z,4.38
2022-10-14T14:02:48.076Z,4.90
2022-10-14T14:05:20.295Z,4.70
2022-10-14T14:08:35.001Z,4.60
2022-10-14T14:10:51.475Z,4.88
2022-10-14T14:13:25.215Z,4.45
2022-10-14T14:15:54.590Z,4.18
2022-10-14T14:18:55.645Z,4.30
2022-10-14T14:21:26.868Z,4.40
2022-10-14T14:24:01.883Z,4.07
2022-10-14T14:26:36.396Z,4.72
2022-10-14T14:29:05.922Z,4.70
2022-10-14T14:32:01.391Z,4.75
2022-10-14T14:34:23.646Z,5.07
2022-10-14T14:36:55.543Z,4.53
2022-10-14T14:39:30.532Z,4.63
2022-10-14T14:42:00.617Z,4.95
2022-10-14T14:44:32.895Z,4.88
2022-10-14T14:47:03.726Z,4.90
2022-10-14T14:49:38.323Z,4.35
2022-10-14T14:52:06.684Z,4.78
2022-10-14T14:54:33.830Z,5.00
2022-10-14T14:57:06.720Z,4.85
2022-10-14T14:59:39.755Z,5.35
2022-10-14T15:02:16.922Z,5.07
2022-10-14T15:04:44.729Z,4.95
2022-10-14T15:07:21.977Z,4.47
2022-10-14T15:09:51.080Z,5.07
2022-10-14T15:12:21.921Z,4.55
2022-10-14T15:14:54.349Z,4.80
2022-10-14T15:17:45.476Z,4.28
2022-10-14T15:20:28.843Z,4.82
2022-10-14T15:22:55.968Z,4.45
2022-10-14T15:25:29.213Z,4.45
2022-10-14T15:27:58.237Z,4.40
2022-10-14T15:30:35.888Z,5.18
2022-10-14T15:33:11.928Z,6.90
2022-10-14T15:35:39.571Z,9.02
2022-10-14T15:38:16.657Z,8.25
2022-10-14T15:40:48.274Z,8.35
2022-10-14T15:43:20.743Z,8.63
2022-10-14T15:46:11.879Z,8.30
2022-10-14T15:48:49.036Z,8.82
2022-10-14T15:51:17.947Z,7.65
2022-10-14T15:53:45.430Z,7.85
2022-10-14T15:56:12.675Z,8.32
2022-10-14T15:58:39.956Z,8.17
2022-10-14T16:01:07.668Z,8.13
2022-10-14T16:03:37.240Z,8.60
2022-10-14T16:06:06.349Z,8.17
2022-10-14T16:08:33.771Z,8.27
2022-10-14T16:11:01.039Z,7.80
2022-10-14T16:13:28.259Z,8.73
2022-10-14T16:15:58.973Z,10.00
2022-10-14T16:18:26.442Z,10.20
2022-10-14T16:20:54.476Z,9.10
2022-10-14T16:23:28.305Z,8.97
2022-10-14T16:26:00.416Z,9.13
2022-10-14T16:28:27.734Z,8.67
2022-10-14T16:30:56.791Z,9.00
2022-10-14T16:33:24.453Z,8.10
2022-10-14T16:35:54.205Z,7.17
2022-10-14T16:38:22.611Z,7.10
2022-10-14T16:40:57.680Z,6.87
2022-10-14T16:43:25.756Z,6.70
2022-10-14T16:45:53.406Z,6.70
2022-10-14T16:48:20.827Z,6.43
2022-10-14T16:50:52.012Z,7.07
2022-10-14T16:53:38.989Z,6.70
2022-10-14T16:56:35.048Z,6.10
2022-10-14T16:59:03.004Z,6.10
2022-10-14T17:01:32.269Z,5.63
2022-10-14T17:04:00.308Z,5.13
2022-10-14T17:06:28.273Z,5.90
2022-10-14T17:08:56.253Z,6.40
2022-10-14T17:11:24.249Z,5.73
2022-10-14T17:13:52.736Z,5.93
2022-10-14T17:16:20.377Z,5.57
2022-10-14T17:21:16.374Z,5.50
2022-10-14T17:23:44.629Z,5.03
2022-10-14T17:26:15.770Z,6.23
2022-10-14T17:28:43.209Z,5.70
2022-10-14T17:31:20.048Z,5.67
2022-10-14T17:33:47.739Z,5.70
2022-10-14T17:36:18.220Z,5.83
2022-10-14T17:38:46.262Z,5.70
2022-10-14T17:41:15.082Z,5.50
2022-10-14T17:43:43.513Z,6.20
2022-10-14T17:46:13.162Z,6.83
2022-10-14T17:48:43.796Z,8.47
2022-10-14T17:51:11.906Z,7.37
2022-10-14T17:53:40.086Z,7.17
2022-10-14T17:56:09.961Z,8.47
2022-10-14T17:58:37.864Z,7.80
2022-10-14T18:01:11.591Z,8.07
2022-10-14T18:03:42.132Z,7.90
2022-10-14T18:06:25.081Z,7.50
2022-10-14T18:08:57.243Z,6.67
2022-10-14T18:11:25.479Z,6.90
2022-10-14T18:13:59.551Z,7.83
2022-10-14T18:16:33.672Z,8.00
2022-10-14T18:19:03.304Z,6.63
2022-10-14T18:21:30.538Z,7.50
2022-10-14T18:23:57.995Z,7.70
2022-10-14T18:26:25.179Z,8.70
2022-10-14T18:28:54.436Z,9.10
2022-10-14T18:31:27.414Z,8.93
2022-10-14T18:33:55.657Z,7.77
2022-10-14T18:36:25.984Z,9.57
2022-10-14T18:38:59.808Z,8.87
2022-10-14T18:41:28.258Z,7.93
2022-10-14T18:43:58.777Z,7.90
2022-10-14T18:46:28.935Z,7.33
2022-10-14T18:48:58.450Z,8.43
2022-10-14T18:51:29.147Z,7.77
2022-10-14T18:54:02.538Z,8.63
2022-10-14T18:56:33.553Z,8.33
2022-10-14T19:01:37.403Z,9.30
2022-10-14T19:04:07.024Z,10.03
2022-10-14T19:06:34.954Z,9.27
2022-10-14T19:09:02.731Z,10.33
2022-10-14T19:11:31.161Z,9.93
2022-10-14T19:14:00.705Z,10.27
2022-10-14T19:16:32.271Z,10.30
2022-10-14T19:19:04.394Z,10.00
2022-10-14T19:21:32.409Z,9.63
2022-10-14T19:24:02.541Z,10.00
2022-10-14T19:26:34.991Z,8.40
2022-10-14T19:29:08.975Z,8.70
2022-10-14T19:31:40.288Z,8.30
2022-10-14T19:34:11.198Z,7.87
2022-10-14T19:36:41.800Z,7.97
2022-10-14T19:39:18.233Z,7.37
2022-10-14T19:41:48.223Z,7.93
2022-10-14T19:44:21.847Z,8.63
2022-10-14T19:46:50.418Z,7.80
2022-10-14T19:49:22.446Z,8.20
2022-10-14T19:51:57.205Z,9.20
2022-10-14T19:54:26.324Z,9.87
2022-10-14T19:56:55.485Z,8.37
2022-10-14T19:59:25.637Z,8.30
2022-10-14T20:01:57.507Z,9.37
2022-10-14T20:04:27.492Z,7.70
2022-10-14T20:06:57.338Z,11.57
2022-10-14T20:09:26.685Z,8.30
2022-10-14T20:11:54.218Z,8.47
2022-10-14T20:14:21.652Z,8.70
2022-10-14T20:16:53.544Z,7.50
2022-10-14T20:19:24.374Z,8.53
2022-10-14T20:21:51.846Z,10.77
2022-10-14T20:24:23.500Z,9.77
2022-10-14T20:26:51.338Z,8.70
2022-10-14T20:29:18.736Z,8.93
2022-10-14T20:31:46.750Z,9.70
2022-10-14T20:34:14.209Z,12.27
2022-10-14T20:36:41.633Z,11.17
2022-10-14T20:39:09.403Z,10.57
2022-10-14T20:41:36.953Z,10.33
2022-10-14T20:44:06.668Z,11.60
2022-10-14T20:46:34.440Z,11.90
2022-10-14T20:49:03.794Z,10.50
2022-10-14T20:51:31.699Z,11.77
2022-10-14T20:54:03.983Z,9.63
2022-10-14T20:56:34.209Z,9.67
2022-10-14T20:59:04.439Z,11.93
2022-10-14T21:01:32.895Z,11.50
2022-10-14T21:04:04.891Z,10.47
2022-10-14T21:06:32.408Z,10.13
2022-10-14T21:08:59.908Z,11.30
2022-10-14T21:11:28.164Z,11.23
2022-10-14T21:14:00.385Z,12.13
2022-10-14T21:16:30.646Z,10.37
2022-10-14T21:19:00.462Z,11.73
2022-10-14T21:21:31.588Z,13.03
2022-10-14T21:23:59.889Z,11.43
2022-10-14T21:26:28.763Z,11.90
2022-10-14T21:28:56.705Z,10.77
2022-10-14T21:31:24.166Z,10.03
2022-10-14T21:33:58.915Z,9.73
2022-10-14T21:36:30.290Z,9.07
2022-10-14T21:38:57.902Z,10.57
2022-10-14T21:41:25.347Z,10.00
2022-10-14T21:43:52.695Z,11.27
2022-10-14T21:46:19.863Z,12.20
2022-10-14T21:48:47.034Z,11.43
2022-10-14T21:51:17.008Z,9.90
2022-10-14T21:53:46.095Z,11.13
2022-10-14T21:56:15.053Z,11.23
2022-10-14T21:58:42.568Z,9.23
2022-10-14T22:01:13.158Z,9.67
2022-10-14T22:03:41.122Z,9.57
2022-10-14T22:06:14.595Z,8.87
2022-10-14T22:08:47.008Z,9.23
2022-10-14T22:11:22.063Z,9.10
2022-10-14T22:13:50.225Z,8.80
2022-10-14T22:16:17.961Z,9.33
2022-10-14T22:18:46.941Z,9.97
2022-10-14T22:21:16.245Z,11.00
2022-10-14T22:23:44.310Z,10.10
2022-10-14T22:26:13.207Z,9.07
2022-10-14T22:28:40.815Z,9.10
2022-10-14T22:31:14.784Z,10.10
2022-10-14T22:33:42.653Z,9.90
2022-10-14T22:36:24.077Z,9.87
2022-10-14T22:38:53.519Z,11.23
2022-10-14T22:41:22.447Z,9.87
2022-10-14T22:43:54.440Z,8.87
2022-10-14T22:46:24.317Z,9.07
2022-10-14T22:48:56.322Z,9.87
2022-10-14T22:53:57.929Z,11.93
2022-10-14T22:56:27.216Z,13.43
2022-10-14T22:59:02.158Z,12.00
2022-10-14T23:01:29.375Z,12.37
2022-10-14T23:03:58.426Z,11.47
2022-10-14T23:06:26.140Z,11.27
2022-10-14T23:08:54.537Z,10.97
2022-10-14T23:11:23.872Z,11.00
2022-10-14T23:13:51.948Z,10.87
2022-10-14T23:16:24.994Z,10.03
2022-10-14T23:18:52.887Z,9.50
2022-10-14T23:21:28.159Z,9.37
2022-10-14T23:24:01.024Z,8.60
2022-10-14T23:26:34.649Z,9.00
2022-10-14T23:29:04.965Z,10.00
2022-10-14T23:31:34.729Z,11.50
2022-10-14T23:34:05.002Z,10.07
2022-10-14T23:36:32.947Z,11.60
2022-10-14T23:39:00.367Z,11.70
2022-10-14T23:41:28.131Z,12.87
2022-10-14T23:43:56.896Z,12.63
2022-10-14T23:46:24.794Z,13.10
2022-10-14T23:49:06.604Z,12.43
2022-10-14T23:51:35.837Z,12.93
2022-10-14T23:54:03.457Z,12.80
2022-10-14T23:56:30.587Z,13.20
2022-10-14T23:58:57.747Z,11.80
